createdAt,value
2017-08-08T02:26:25.959Z,10.03
2017-08-08T04:19:25.060Z,8.20
2017-08-08T06:39:46.390Z,12.70
2017-08-08T06:48:06.697Z,5.00
2017-08-08T06:53:37.484Z,8.83
2017-08-08T06:56:08.694Z,8.60
2017-08-08T06:59:04.265Z,5.53
2017-08-08T07:01:46.437Z,7.30
2017-08-08T07:04:24.335Z,7.13
2017-08-08T07:15:40.661Z,5.70
2017-08-08T07:30:26.110Z,5.90
2017-08-08T07:33:06.928Z,4.83
2017-08-08T07:41:13.146Z,5.60
2017-08-08T07:44:07.391Z,4.50
2017-08-08T07:46:36.065Z,8.83
2017-08-08T07:49:21.118Z,4.63
2017-08-08T07:51:49.208Z,11.70
2017-08-08T08:03:31.128Z,4.20
2017-08-08T08:09:05.187Z,3.80
2017-08-08T08:11:42.421Z,5.57
2017-08-08T08:14:16.396Z,9.50
2017-08-08T08:16:42.838Z,3.73
2017-08-08T08:19:20.413Z,3.77
2017-08-08T08:21:52.324Z,5.77
2017-08-08T08:24:33.651Z,4.90
2017-08-08T08:27:04.891Z,8.23
2017-08-08T08:29:56.855Z,4.23
2017-08-08T08:32:45.246Z,7.87
2017-08-08T08:38:41.162Z,4.57
2017-08-08T08:41:11.533Z,3.87
2017-08-08T08:46:34.088Z,5.60
2017-08-08T08:49:08.343Z,6.17
2017-08-08T08:51:37.536Z,7.33
2017-08-08T08:54:10.764Z,4.10
2017-08-08T08:59:24.497Z,3.77
2017-08-08T09:04:53.393Z,4.23
2017-08-08T09:07:19.889Z,4.90
2017-08-08T09:12:22.171Z,3.30
2017-08-08T09:14:55.322Z,4.43
2017-08-08T09:20:19.339Z,8.17
2017-08-08T09:23:19.729Z,7.43
2017-08-08T09:25:46.069Z,3.53
2017-08-08T09:28:17.684Z,3.23
2017-08-08T09:30:50.713Z,3.80
2017-08-08T09:33:28.655Z,3.00
2017-08-08T09:36:18.918Z,8.80
2017-08-08T09:38:52.538Z,6.57
2017-08-08T09:44:31.349Z,3.80
2017-08-08T09:46:58.153Z,5.83
2017-08-08T09:49:29.382Z,4.00
2017-08-08T09:52:09.913Z,3.70
2017-08-08T09:54:38.368Z,11.00
2017-08-08T09:57:04.779Z,8.07
2017-08-08T09:59:31.254Z,13.57
2017-08-08T10:02:01.584Z,15.83
2017-08-08T10:04:29.228Z,18.90
2017-08-08T10:06:58.551Z,11.37
2017-08-08T10:09:25.939Z,23.47
2017-08-08T10:11:52.306Z,25.47
2017-08-08T10:14:23.961Z,41.87
2017-08-08T10:16:50.299Z,9.93
2017-08-08T10:19:18.596Z,23.00
2017-08-08T10:21:53.683Z,13.33
2017-08-08T10:24:20.072Z,8.80
2017-08-08T10:29:24.097Z,34.23
2017-08-08T10:31:50.462Z,17.40
2017-08-08T10:34:25.239Z,18.03
2017-08-08T10:39:32.424Z,14.80
2017-08-08T10:41:58.781Z,20.43
2017-08-08T10:44:25.865Z,21.60
2017-08-08T10:46:52.237Z,21.20
2017-08-08T10:49:21.030Z,13.03
2017-08-08T10:51:47.411Z,13.27
2017-08-08T10:54:15.525Z,10.30
2017-08-08T10:56:41.962Z,4.40
2017-08-08T10:59:12.309Z,17.63
2017-08-08T11:01:40.372Z,8.50
2017-08-08T11:04:06.773Z,16.53
2017-08-08T11:06:33.057Z,7.67
2017-08-08T11:09:00.824Z,8.70
2017-08-08T11:11:27.237Z,6.33
2017-08-08T11:20:26.499Z,9.57
2017-08-08T11:22:54.398Z,9.97
2017-08-08T11:27:21.574Z,11.57
2017-08-08T11:29:47.763Z,6.30
2017-08-08T11:32:14.015Z,7.33
2017-08-08T11:34:40.553Z,6.53
2017-08-08T11:37:08.874Z,9.20
2017-08-08T11:39:35.752Z,6.90
2017-08-08T11:42:01.893Z,8.13
2017-08-08T11:44:28.042Z,6.60
2017-08-08T11:46:54.266Z,6.83
2017-08-08T11:49:20.524Z,6.67
2017-08-08T11:51:47.433Z,6.50
2017-08-08T11:54:13.579Z,6.03
2017-08-08T11:56:39.732Z,7.80
2017-08-08T11:59:06.014Z,10.60
2017-08-08T12:01:32.179Z,6.87
2017-08-08T12:03:59.057Z,6.00
2017-08-08T12:06:25.886Z,10.83
2017-08-08T12:08:52.000Z,6.30
2017-08-08T12:11:18.160Z,6.10
2017-08-08T12:13:44.293Z,9.03
2017-08-08T12:16:10.428Z,5.90
2017-08-08T12:18:36.593Z,6.30
2017-08-08T12:21:03.452Z,6.43
2017-08-08T12:23:29.576Z,5.80
2017-08-08T12:25:55.740Z,4.90
2017-08-08T12:28:21.880Z,6.33
2017-08-08T12:30:48.004Z,5.57
2017-08-08T12:33:14.324Z,5.53
2017-08-08T12:35:40.450Z,5.47
2017-08-08T12:38:06.607Z,5.17
2017-08-08T12:40:32.789Z,6.33
2017-08-08T12:42:58.929Z,5.57
2017-08-08T12:45:25.074Z,6.40
2017-08-08T12:47:51.598Z,6.97
2017-08-08T12:50:17.726Z,5.57
2017-08-08T12:52:43.857Z,7.60
2017-08-08T12:55:10.035Z,5.70
2017-08-08T12:57:36.153Z,10.40
2017-08-08T13:00:02.348Z,4.87
2017-08-08T13:02:28.614Z,8.83
2017-08-08T13:04:54.750Z,5.37
2017-08-08T13:07:20.881Z,8.13
2017-08-08T13:09:47.027Z,7.10
2017-08-08T13:12:13.168Z,11.00
2017-08-08T13:14:39.286Z,9.80
2017-08-08T13:17:05.717Z,6.00
2017-08-08T13:19:31.851Z,7.70
2017-08-08T13:21:58.006Z,6.13
2017-08-08T13:24:24.182Z,7.03
2017-08-08T13:26:50.329Z,5.33
2017-08-08T13:29:16.480Z,10.13
2017-08-08T13:31:43.374Z,5.47
2017-08-08T13:34:09.498Z,6.20
2017-08-08T13:36:35.616Z,6.40
2017-08-08T13:39:01.974Z,5.87
2017-08-08T13:41:28.096Z,7.10
2017-08-08T13:43:54.224Z,5.07
2017-08-08T13:46:20.370Z,6.20
2017-08-08T13:48:46.500Z,5.90
2017-08-08T13:51:12.621Z,7.50
2017-08-08T13:53:39.136Z,6.10
2017-08-08T13:56:05.619Z,5.20
2017-08-08T13:58:31.763Z,6.37
2017-08-08T14:00:57.949Z,6.20
2017-08-08T14:03:24.089Z,6.10
2017-08-08T14:05:50.959Z,6.57
2017-08-08T14:08:17.105Z,8.90
2017-08-08T14:10:43.222Z,5.93
2017-08-08T14:13:09.350Z,7.83
2017-08-08T14:15:35.610Z,7.97
2017-08-08T14:18:01.891Z,6.67
2017-08-08T14:20:28.023Z,10.07
2017-08-08T14:22:54.201Z,13.77
2017-08-08T14:25:20.326Z,7.67
2017-08-08T14:27:46.457Z,14.20
2017-08-08T14:30:12.614Z,6.47
2017-08-08T14:32:38.757Z,6.83
2017-08-08T14:35:04.885Z,8.93
2017-08-08T14:37:31.304Z,6.73
2017-08-08T14:39:57.428Z,7.70
2017-08-08T14:42:23.545Z,7.03
2017-08-08T14:44:49.957Z,8.03
2017-08-08T14:47:16.828Z,10.57
2017-08-08T14:49:42.988Z,12.17
2017-08-08T14:52:09.153Z,8.47
2017-08-08T14:54:36.017Z,7.33
2017-08-08T14:57:02.193Z,8.73
2017-08-08T14:59:28.358Z,11.40
2017-08-08T15:01:55.229Z,7.37
2017-08-08T15:04:21.370Z,7.53
2017-08-08T15:06:47.498Z,14.63
2017-08-08T15:09:13.866Z,10.87
2017-08-08T15:11:40.025Z,10.93
2017-08-08T15:14:06.894Z,10.50
2017-08-08T15:16:33.033Z,10.50
2017-08-08T15:18:59.498Z,7.77
2017-08-08T15:21:25.633Z,16.00
2017-08-08T15:23:51.761Z,5.63
2017-08-08T15:26:18.280Z,6.40
2017-08-08T15:28:44.433Z,8.20
2017-08-08T15:31:10.553Z,6.03
2017-08-08T15:33:36.828Z,4.93
2017-08-08T15:36:02.955Z,5.90
2017-08-08T15:38:29.085Z,5.10
2017-08-08T15:40:55.261Z,5.47
2017-08-08T15:43:21.420Z,5.13
2017-08-08T15:45:47.554Z,4.87
2017-08-08T15:48:13.717Z,4.50
2017-08-08T15:50:39.835Z,4.53
2017-08-08T15:53:05.944Z,5.53
2017-08-08T15:55:32.133Z,7.80
2017-08-08T15:57:59.274Z,7.70
2017-08-08T16:00:26.144Z,6.83
2017-08-08T16:02:52.309Z,8.17
2017-08-08T16:05:18.437Z,6.57
2017-08-08T16:07:44.548Z,11.03
2017-08-08T16:10:10.790Z,5.73
2017-08-08T16:12:36.910Z,6.60
2017-08-08T16:15:03.123Z,7.40
2017-08-08T16:17:29.590Z,9.83
2017-08-08T16:19:55.960Z,10.03
2017-08-08T16:22:22.825Z,5.27
2017-08-08T16:24:48.949Z,4.63
2017-08-08T16:27:15.196Z,4.00
2017-08-08T16:29:41.398Z,5.43
2017-08-08T16:32:07.544Z,10.33
2017-08-08T16:34:33.702Z,4.83
2017-08-08T16:36:59.872Z,9.73
2017-08-08T16:39:26.002Z,9.13
2017-08-08T16:41:52.250Z,6.90
2017-08-08T16:44:19.408Z,4.77
2017-08-08T16:46:46.468Z,5.87
2017-08-08T16:49:12.619Z,15.20
2017-08-08T16:51:38.749Z,4.60
2017-08-08T16:54:05.625Z,5.40
2017-08-08T16:56:31.999Z,11.27
2017-08-08T16:58:58.125Z,7.90
2017-08-08T17:01:24.254Z,7.47
2017-08-08T17:03:50.421Z,10.17
2017-08-08T17:06:16.559Z,7.73
2017-08-08T17:08:42.692Z,6.83
2017-08-08T17:11:08.881Z,5.97
2017-08-08T17:13:35.029Z,7.63
2017-08-08T17:16:01.152Z,10.70
2017-08-08T17:18:27.308Z,6.00
2017-08-08T17:20:53.449Z,6.30
2017-08-08T17:23:19.580Z,13.20
2017-08-08T17:25:46.013Z,10.23
2017-08-08T17:28:12.160Z,5.50
2017-08-08T17:30:38.292Z,11.50
2017-08-08T17:33:04.425Z,9.10
2017-08-08T17:35:31.307Z,8.10
2017-08-08T17:37:57.467Z,10.23
2017-08-08T17:40:23.600Z,4.60
2017-08-08T17:42:49.745Z,7.60
2017-08-08T17:45:16.860Z,14.87
2017-08-08T17:47:43.742Z,12.80
2017-08-08T17:50:09.881Z,7.87
2017-08-08T17:52:36.061Z,18.47
2017-08-08T17:55:02.194Z,8.70
2017-08-08T17:57:28.336Z,17.53
2017-08-08T17:59:54.737Z,25.10
2017-08-08T18:02:21.207Z,12.37
2017-08-08T18:04:47.334Z,12.33
2017-08-08T18:07:14.230Z,11.00
2017-08-08T18:09:40.369Z,8.30
2017-08-08T18:12:06.494Z,4.63
2017-08-08T18:14:32.885Z,17.90
2017-08-08T18:16:59.009Z,11.20
2017-08-08T18:19:25.135Z,31.43
2017-08-08T18:21:51.503Z,8.00
2017-08-08T18:24:17.627Z,15.90
2017-08-08T18:26:43.744Z,16.40
2017-08-08T18:29:09.889Z,15.00
2017-08-08T18:31:36.041Z,16.10
2017-08-08T18:34:02.169Z,17.30
2017-08-08T18:36:29.545Z,18.90
2017-08-08T18:38:56.685Z,54.50
2017-08-08T18:41:23.537Z,60.37
2017-08-08T18:43:49.713Z,28.30
2017-08-08T18:46:15.842Z,45.73
2017-08-08T18:48:41.956Z,21.70
2017-08-08T18:51:08.130Z,51.13
2017-08-08T18:53:34.993Z,46.37
2017-08-08T18:56:01.570Z,137.87
2017-08-08T18:58:27.731Z,68.80
2017-08-08T19:00:54.596Z,72.97
2017-08-08T19:03:20.729Z,122.17
2017-08-08T19:05:46.961Z,69.93
2017-08-08T19:08:13.085Z,46.40
2017-08-08T19:10:39.207Z,46.63
2017-08-08T19:13:05.350Z,33.40
2017-08-08T19:15:31.476Z,241.93
2017-08-08T19:17:57.633Z,51.80
2017-08-08T19:20:23.772Z,66.63
2017-08-08T19:22:49.926Z,109.03
2017-08-08T19:25:16.410Z,54.00
2017-08-08T19:27:42.533Z,49.60
2017-08-08T19:30:08.660Z,76.80
2017-08-08T19:32:34.809Z,45.03
2017-08-08T19:35:01.690Z,122.33
2017-08-08T19:37:27.828Z,71.43
2017-08-08T19:39:53.967Z,76.20
2017-08-08T19:42:20.099Z,121.90
2017-08-08T19:44:46.222Z,90.80
2017-08-08T19:47:12.378Z,105.83
2017-08-08T19:49:38.514Z,63.93
2017-08-08T19:52:05.371Z,52.37
2017-08-08T19:54:32.260Z,52.57
2017-08-08T19:56:58.394Z,73.10
2017-08-08T19:59:24.517Z,43.90
2017-08-08T20:01:50.756Z,38.60
2017-08-08T20:04:16.898Z,50.33
2017-08-08T20:06:43.018Z,42.03
2017-08-08T20:09:09.190Z,40.50
2017-08-08T20:11:35.318Z,46.20
2017-08-08T20:14:01.444Z,63.83
2017-08-08T20:16:27.590Z,33.90
2017-08-08T20:18:53.729Z,65.47
2017-08-08T20:21:19.853Z,127.10
2017-08-08T20:23:46.031Z,79.03
2017-08-08T20:26:12.161Z,108.83
2017-08-08T20:28:38.325Z,199.53
2017-08-08T20:31:04.481Z,124.77
2017-08-08T20:33:30.605Z,220.17
2017-08-08T20:35:56.739Z,183.13
2017-08-08T20:38:23.659Z,65.40
2017-08-08T20:40:49.785Z,103.70
2017-08-08T20:43:15.920Z,300.67
2017-08-08T20:45:42.158Z,75.33
2017-08-08T20:48:08.281Z,73.93
2017-08-08T20:50:35.156Z,114.57
2017-08-08T20:53:01.641Z,95.87
2017-08-08T20:55:27.765Z,208.50
2017-08-08T20:57:53.894Z,96.03
2017-08-08T21:00:20.322Z,230.70
2017-08-08T21:02:46.464Z,158.13
2017-08-08T21:05:12.589Z,69.03
2017-08-08T21:07:38.740Z,111.23
2017-08-08T21:10:05.608Z,89.93
2017-08-08T21:12:31.730Z,57.20
2017-08-08T21:14:58.207Z,140.27
2017-08-08T21:17:24.345Z,149.70
2017-08-08T21:19:50.465Z,72.67
2017-08-08T21:22:16.622Z,54.20
2017-08-08T21:24:43.490Z,66.93
2017-08-08T21:27:09.596Z,41.73
2017-08-08T21:29:35.756Z,39.60
2017-08-08T21:32:01.934Z,66.97
2017-08-08T21:34:28.050Z,61.40
2017-08-08T21:36:55.273Z,46.27
2017-08-08T21:39:21.419Z,51.00
2017-08-08T21:41:47.559Z,40.23
2017-08-08T21:44:14.465Z,51.73
2017-08-08T21:46:40.577Z,102.30
2017-08-08T21:49:06.696Z,56.93
2017-08-08T21:51:32.977Z,60.63
2017-08-08T21:53:59.097Z,60.63
2017-08-08T21:56:25.208Z,56.73
2017-08-08T21:58:51.364Z,77.27
2017-08-08T22:01:18.235Z,51.77
2017-08-08T22:03:44.357Z,58.30
2017-08-08T22:06:10.729Z,67.40
2017-08-08T22:08:36.864Z,58.63
2017-08-08T22:11:02.988Z,42.40
2017-08-08T22:13:29.108Z,77.67
2017-08-08T22:15:55.290Z,83.50
2017-08-08T22:18:22.176Z,83.30
2017-08-08T22:20:48.285Z,81.30
2017-08-08T22:23:14.417Z,43.50
2017-08-08T22:25:40.878Z,65.30
2017-08-08T22:28:07.076Z,66.37
2017-08-08T22:30:33.237Z,55.80
2017-08-08T22:32:59.405Z,58.00
2017-08-08T22:35:25.525Z,49.10
2017-08-08T22:37:51.666Z,49.50
2017-08-08T22:40:17.909Z,54.87
2017-08-08T22:42:44.034Z,59.20
2017-08-08T22:45:10.149Z,58.90
2017-08-08T22:47:36.310Z,45.27
2017-08-08T22:50:02.493Z,79.53
2017-08-08T22:52:28.627Z,48.13
2017-08-08T22:54:54.998Z,60.83
2017-08-08T22:57:21.119Z,48.97
2017-08-08T22:59:47.269Z,53.90
2017-08-08T23:02:14.501Z,65.00
2017-08-08T23:04:40.629Z,35.97
2017-08-08T23:07:06.761Z,38.33
2017-08-08T23:09:32.996Z,40.53
2017-08-08T23:11:59.870Z,39.50
2017-08-08T23:14:26.001Z,41.47
2017-08-08T23:16:52.176Z,38.07
2017-08-08T23:19:18.304Z,36.80
2017-08-08T23:21:44.446Z,47.90
2017-08-08T23:24:11.348Z,44.30
2017-08-08T23:26:37.465Z,41.47
2017-08-08T23:29:03.604Z,43.07
2017-08-08T23:31:29.765Z,41.80
2017-08-08T23:33:56.902Z,40.50
2017-08-08T23:36:23.041Z,41.63
2017-08-08T23:38:49.953Z,27.60
2017-08-08T23:41:16.105Z,33.23
2017-08-08T23:43:42.219Z,36.10
2017-08-08T23:46:08.352Z,36.10
2017-08-08T23:48:34.481Z,33.10
2017-08-08T23:51:01.344Z,58.70
2017-08-08T23:53:28.221Z,43.03
2017-08-08T23:55:54.336Z,29.80
2017-08-08T23:58:20.485Z,35.93
